Terminal Aerodrome Forecast
Issued by NWS Goodland, KS

Home | Current Version | Previous Version | Text Only | Print | Product List | Glossary On
Versions: 1 2 3 4 5 6 7 8 9 10 11 12 13 14 15 16 17 18 19 20 21 22 23 24 25 26 27 28 29 30
285
FTUS43 KGLD 271141 AAE
TAFGLD
TAF AMD
KGLD 271141Z 2712/2812 VRB05KT P6SM OVC015
     FM271500 02008KT P6SM VCSH BKN020
     FM271800 03010KT 6SM -SHRA BKN025
      TEMPO 2719/2723 -TSRA BKN035CB
     FM272300 36010KT P6SM -SHRA BKN035
     FM280300 32007KT P6SM BKN090=

USA.gov is the U.S. government's official web portal to all federal, state and local government web resources and services.